Gullane, United Kingdom
Current Conditions -  °F | °C
As of 3:50 AM on Sunday 21 Dec 2014 (Local Time) from EGPH Reporting Station
Light Rain Light Rain  
Wind Chill: 37°   Ceiling: 1900
Heat Index: 45°   Visibility: 6mi
Dew Point: 41°   Wind: 17mph
Humidity: 87%   Direction: 230°SW
Pressure: 30.03"   Gusts: NA
Location:  56.04°N, 2.83°W
Report Text: EGPH 210350Z 23015KT 9999 -RA OVC019 07/05 Q1017
Loading
Personal Weather Stations






























Interactive Weather Map New forecast layout! Learn more

10-Day Weather Forecast

Advertisements
Track Severe Weather on mobile